Time;durP1;ratioP1;P1;durP2;ratioP2;P2;SDS_P1;SDS_P2;PMS_P1;PMS_P2;Temp;Humidity;BMP_temperature;BMP_pressure;BME280_temperature;BME280_humidity;BME280_pressure;Samples;Min_cycle;Max_cycle;Signal;HPM_P1;HPM_P2
2022/02/06 00:00:20;;;;;;;2.65;1.6;;;;;;;0.89;58.33398;95723.3;;;;
2022/02/06 00:01:21;;;;;;;2.65;1.6;;;;;;;0.89;58.33398;95723.3;;;;
2022/02/06 00:02:26;;;;;;;2.65;1.6;;;;;;;0.89;58.33398;95723.3;;;;
2022/02/06 00:03:27;;;;;;;2.65;1.6;;;;;;;0.89;58.33398;95723.3;;;;
2022/02/06 00:04:28;;;;;;;2.65;1.6;;;;;;;0.89;58.33398;95723.3;;;;
2022/02/06 00:05:30;;;;;;;2.65;1.6;;;;;;;0.89;58.33398;95723.3;;;;
2022/02/06 00:06:33;;;;;;;2.65;1.6;;;;;;;0.89;58.33398;95723.3;;;;
2022/02/06 00:07:33;;;;;;;2.65;1.6;;;;;;;0.89;58.33398;95723.3;;;;
2022/02/06 00:08:37;;;;;;;2.65;1.6;;;;;;;0.89;58.33398;95723.3;;;;
2022/02/06 00:09:38;;;;;;;3.5;1.95;;;;;;;0.95;58.54297;95720.4;;;;
2022/02/06 00:10:39;;;;;;;3.5;1.95;;;;;;;0.95;58.54297;95720.4;;;;
2022/02/06 00:11:40;;;;;;;3.5;1.95;;;;;;;0.95;58.54297;95720.4;;;;
2022/02/06 00:12:40;;;;;;;3.5;1.95;;;;;;;0.95;58.54297;95720.4;;;;
2022/02/06 00:13:41;;;;;;;3.5;1.95;;;;;;;0.95;58.54297;95720.4;;;;
2022/02/06 00:14:42;;;;;;;3.5;1.95;;;;;;;0.95;58.54297;95720.4;;;;
2022/02/06 00:15:42;;;;;;;3.5;1.95;;;;;;;0.95;58.54297;95720.4;;;;
2022/02/06 00:16:43;;;;;;;3.5;1.95;;;;;;;0.95;58.54297;95720.4;;;;
2022/02/06 00:17:43;;;;;;;3.5;1.95;;;;;;;0.95;58.54297;95720.4;;;;
2022/02/06 00:18:45;;;;;;;3.5;1.95;;;;;;;0.95;58.54297;95720.4;;;;
2022/02/06 00:19:46;;;;;;;3.5;1.95;;;;;;;0.95;58.54297;95720.4;;;;
2022/02/06 00:20:51;;;;;;;3;1.7;;;;;;;0.96;58.74414;95705.19;;;;
2022/02/06 00:21:51;;;;;;;3;1.7;;;;;;;0.96;58.74414;95705.19;;;;
2022/02/06 00:22:55;;;;;;;3;1.7;;;;;;;0.96;58.74414;95705.19;;;;
2022/02/06 00:23:56;;;;;;;3;1.7;;;;;;;0.96;58.74414;95705.19;;;;
2022/02/06 00:25:12;;;;;;;3;1.7;;;;;;;0.96;58.74414;95705.19;;;;
2022/02/06 00:26:21;;;;;;;3;1.7;;;;;;;0.96;58.74414;95705.19;;;;
2022/02/06 00:27:29;;;;;;;3;1.7;;;;;;;0.96;58.74414;95705.19;;;;
2022/02/06 00:28:42;;;;;;;3;1.7;;;;;;;0.96;58.74414;95705.19;;;;
2022/02/06 00:29:51;;;;;;;3;1.7;;;;;;;0.96;58.74414;95705.19;;;;
2022/02/06 00:30:56;;;;;;;4.75;1.95;;;;;;;1.01;58.83398;95699.36;;;;
2022/02/06 00:32:01;;;;;;;4.75;1.95;;;;;;;1.01;58.83398;95699.36;;;;
2022/02/06 00:33:05;;;;;;;4.75;1.95;;;;;;;1.01;58.83398;95699.36;;;;
2022/02/06 00:34:32;;;;;;;4.75;1.95;;;;;;;1.01;58.83398;95699.36;;;;
2022/02/06 00:35:50;;;;;;;4.75;1.95;;;;;;;1.01;58.83398;95699.36;;;;
2022/02/06 00:42:03;;;;;;;3.45;1.55;;;;;;;0.97;59.11328;95686.1;;;;
2022/02/06 00:43:04;;;;;;;3.45;1.55;;;;;;;0.97;59.11328;95686.1;;;;
2022/02/06 00:44:04;;;;;;;3.45;1.55;;;;;;;0.97;59.11328;95686.1;;;;
2022/02/06 00:45:06;;;;;;;3.45;1.55;;;;;;;0.97;59.11328;95686.1;;;;
2022/02/06 00:46:09;;;;;;;3.45;1.55;;;;;;;0.97;59.11328;95686.1;;;;
2022/02/06 00:47:09;;;;;;;3.45;1.55;;;;;;;0.97;59.11328;95686.1;;;;
2022/02/06 00:48:10;;;;;;;3.45;1.55;;;;;;;0.97;59.11328;95686.1;;;;
2022/02/06 00:49:14;;;;;;;3.45;1.55;;;;;;;0.97;59.11328;95686.1;;;;
2022/02/06 00:50:14;;;;;;;3.45;1.55;;;;;;;0.97;59.11328;95686.1;;;;
2022/02/06 00:51:20;;;;;;;3.45;1.55;;;;;;;0.97;59.11328;95686.1;;;;
2022/02/06 00:52:26;;;;;;;4.6;1.7;;;;;;;0.98;59.51367;95665.99;;;;
2022/02/06 00:53:26;;;;;;;4.6;1.7;;;;;;;0.98;59.51367;95665.99;;;;
2022/02/06 00:54:27;;;;;;;4.6;1.7;;;;;;;0.98;59.51367;95665.99;;;;
2022/02/06 00:55:28;;;;;;;4.6;1.7;;;;;;;0.98;59.51367;95665.99;;;;
2022/02/06 00:56:29;;;;;;;4.6;1.7;;;;;;;0.98;59.51367;95665.99;;;;
2022/02/06 00:57:29;;;;;;;4.6;1.7;;;;;;;0.98;59.51367;95665.99;;;;
2022/02/06 00:58:30;;;;;;;4.6;1.7;;;;;;;0.98;59.51367;95665.99;;;;
2022/02/06 00:59:30;;;;;;;4.6;1.7;;;;;;;0.98;59.51367;95665.99;;;;
2022/02/06 01:00:31;;;;;;;4.6;1.7;;;;;;;0.98;59.51367;95665.99;;;;
2022/02/06 01:01:32;;;;;;;4.6;1.7;;;;;;;0.98;59.51367;95665.99;;;;
2022/02/06 01:02:32;;;;;;;4.6;1.7;;;;;;;0.98;59.51367;95665.99;;;;
2022/02/06 01:03:33;;;;;;;3;1.5;;;;;;;1.04;59.73145;95659.59;;;;
2022/02/06 01:04:34;;;;;;;3;1.5;;;;;;;1.04;59.73145;95659.59;;;;
2022/02/06 01:05:36;;;;;;;3;1.5;;;;;;;1.04;59.73145;95659.59;;;;
2022/02/06 01:06:36;;;;;;;3;1.5;;;;;;;1.04;59.73145;95659.59;;;;
2022/02/06 01:07:37;;;;;;;3;1.5;;;;;;;1.04;59.73145;95659.59;;;;
2022/02/06 01:08:38;;;;;;;3;1.5;;;;;;;1.04;59.73145;95659.59;;;;
2022/02/06 01:09:39;;;;;;;3;1.5;;;;;;;1.04;59.73145;95659.59;;;;
2022/02/06 01:10:39;;;;;;;3;1.5;;;;;;;1.04;59.73145;95659.59;;;;
2022/02/06 01:11:40;;;;;;;3;1.5;;;;;;;1.04;59.73145;95659.59;;;;
2022/02/06 01:12:45;;;;;;;3;1.5;;;;;;;1.04;59.73145;95659.59;;;;
2022/02/06 01:13:57;;;;;;;2.3;1.35;;;;;;;1.14;60.00879;95661.55;;;;
2022/02/06 01:15:05;;;;;;;2.3;1.35;;;;;;;1.14;60.00879;95661.55;;;;
2022/02/06 01:16:13;;;;;;;2.3;1.35;;;;;;;1.14;60.00879;95661.55;;;;
2022/02/06 01:17:23;;;;;;;2.3;1.35;;;;;;;1.14;60.00879;95661.55;;;;
2022/02/06 01:18:30;;;;;;;2.3;1.35;;;;;;;1.14;60.00879;95661.55;;;;
2022/02/06 01:19:41;;;;;;;2.3;1.35;;;;;;;1.14;60.00879;95661.55;;;;
2022/02/06 01:20:43;;;;;;;2.3;1.35;;;;;;;1.14;60.00879;95661.55;;;;
2022/02/06 01:21:49;;;;;;;2.3;1.35;;;;;;;1.14;60.00879;95661.55;;;;
2022/02/06 01:22:54;;;;;;;2.3;1.35;;;;;;;1.14;60.00879;95661.55;;;;
2022/02/06 01:23:59;;;;;;;2.3;1.35;;;;;;;1.14;60.00879;95661.55;;;;
2022/02/06 01:25:05;;;;;;;3.35;1.5;;;;;;;1.26;60.16211;95653.64;;;;
2022/02/06 01:26:16;;;;;;;3.35;1.5;;;;;;;1.26;60.16211;95653.64;;;;
2022/02/06 01:27:20;;;;;;;3.35;1.5;;;;;;;1.26;60.16211;95653.64;;;;
2022/02/06 01:28:28;;;;;;;3.35;1.5;;;;;;;1.26;60.16211;95653.64;;;;
2022/02/06 01:29:37;;;;;;;3.35;1.5;;;;;;;1.26;60.16211;95653.64;;;;
2022/02/06 01:30:46;;;;;;;3.35;1.5;;;;;;;1.26;60.16211;95653.64;;;;
2022/02/06 01:31:53;;;;;;;3.35;1.5;;;;;;;1.26;60.16211;95653.64;;;;
2022/02/06 01:32:59;;;;;;;3.35;1.5;;;;;;;1.26;60.16211;95653.64;;;;
2022/02/06 01:34:01;;;;;;;3.35;1.5;;;;;;;1.26;60.16211;95653.64;;;;
2022/02/06 01:35:10;;;;;;;4.050001;1.35;;;;;;;1.34;60.95215;95634.49;;;;
2022/02/06 01:36:21;;;;;;;4.050001;1.35;;;;;;;1.34;60.95215;95634.49;;;;
2022/02/06 01:37:27;;;;;;;4.050001;1.35;;;;;;;1.34;60.95215;95634.49;;;;
2022/02/06 01:38:34;;;;;;;4.050001;1.35;;;;;;;1.34;60.95215;95634.49;;;;
2022/02/06 01:39:49;;;;;;;4.050001;1.35;;;;;;;1.34;60.95215;95634.49;;;;
2022/02/06 01:40:58;;;;;;;4.050001;1.35;;;;;;;1.34;60.95215;95634.49;;;;
2022/02/06 01:42:00;;;;;;;4.050001;1.35;;;;;;;1.34;60.95215;95634.49;;;;
2022/02/06 01:43:06;;;;;;;4.050001;1.35;;;;;;;1.34;60.95215;95634.49;;;;
2022/02/06 01:44:12;;;;;;;4.050001;1.35;;;;;;;1.34;60.95215;95634.49;;;;
2022/02/06 01:45:31;;;;;;;4.050001;1.35;;;;;;;1.34;60.95215;95634.49;;;;
2022/02/06 01:46:44;;;;;;;4.050001;1.35;;;;;;;1.34;60.95215;95634.49;;;;
2022/02/06 02:03:50;;;;;;;5.699999;2;;;;;;;1.54;61.43262;95610.97;;;;
2022/02/06 02:05:19;;;;;;;5.699999;2;;;;;;;1.54;61.43262;95610.97;;;;
2022/02/06 02:06:56;;;;;;;5.699999;2;;;;;;;1.54;61.43262;95610.97;;;;
2022/02/06 02:08:20;;;;;;;5.699999;2;;;;;;;1.54;61.43262;95610.97;;;;
2022/02/06 02:09:49;;;;;;;5.699999;2;;;;;;;1.54;61.43262;95610.97;;;;
2022/02/06 02:17:22;;;;;;;5.699999;2;;;;;;;1.54;61.43262;95610.97;;;;
2022/02/06 02:18:48;;;;;;;5.699999;2;;;;;;;1.54;61.43262;95610.97;;;;
2022/02/06 02:21:30;;;;;;;5.699999;2;;;;;;;1.54;61.43262;95610.97;;;;
2022/02/06 02:27:40;;;;;;;5.699999;2;;;;;;;1.54;61.43262;95610.97;;;;
2022/02/06 02:29:19;;;;;;;2.45;1.5;;;;;;;1.66;62.24902;95589.12;;;;
2022/02/06 02:30:55;;;;;;;2.45;1.5;;;;;;;1.66;62.24902;95589.12;;;;
2022/02/06 02:32:20;;;;;;;2.45;1.5;;;;;;;1.66;62.24902;95589.12;;;;
2022/02/06 02:33:47;;;;;;;2.45;1.5;;;;;;;1.66;62.24902;95589.12;;;;
2022/02/06 02:45:19;;;;;;;3.050001;1.4;;;;;;;1.65;62.4375;95584.41;;;;
2022/02/06 02:46:28;;;;;;;3.050001;1.4;;;;;;;1.65;62.4375;95584.41;;;;
2022/02/06 02:47:29;;;;;;;3.050001;1.4;;;;;;;1.65;62.4375;95584.41;;;;
2022/02/06 02:48:29;;;;;;;3.050001;1.4;;;;;;;1.65;62.4375;95584.41;;;;
2022/02/06 02:49:32;;;;;;;3.050001;1.4;;;;;;;1.65;62.4375;95584.41;;;;
2022/02/06 02:50:36;;;;;;;5.9;1.35;;;;;;;1.65;62.28906;95566.27;;;;
2022/02/06 02:51:42;;;;;;;5.9;1.35;;;;;;;1.65;62.28906;95566.27;;;;
2022/02/06 02:52:54;;;;;;;5.9;1.35;;;;;;;1.65;62.28906;95566.27;;;;
2022/02/06 02:53:59;;;;;;;5.9;1.35;;;;;;;1.65;62.28906;95566.27;;;;
2022/02/06 02:55:14;;;;;;;5.9;1.35;;;;;;;1.65;62.28906;95566.27;;;;
2022/02/06 02:56:27;;;;;;;5.9;1.35;;;;;;;1.65;62.28906;95566.27;;;;
2022/02/06 02:57:34;;;;;;;5.9;1.35;;;;;;;1.65;62.28906;95566.27;;;;
2022/02/06 02:58:47;;;;;;;5.9;1.35;;;;;;;1.65;62.28906;95566.27;;;;
2022/02/06 02:59:59;;;;;;;5.9;1.35;;;;;;;1.65;62.28906;95566.27;;;;
2022/02/06 03:01:06;;;;;;;2.2;1.3;;;;;;;1.54;62.68457;95544.39;;;;
2022/02/06 03:02:07;;;;;;;2.2;1.3;;;;;;;1.54;62.68457;95544.39;;;;
2022/02/06 03:03:13;;;;;;;2.2;1.3;;;;;;;1.54;62.68457;95544.39;;;;
2022/02/06 03:04:13;;;;;;;2.2;1.3;;;;;;;1.54;62.68457;95544.39;;;;
2022/02/06 03:05:14;;;;;;;2.2;1.3;;;;;;;1.54;62.68457;95544.39;;;;
2022/02/06 03:06:15;;;;;;;2.2;1.3;;;;;;;1.54;62.68457;95544.39;;;;
2022/02/06 03:07:15;;;;;;;2.2;1.3;;;;;;;1.54;62.68457;95544.39;;;;
2022/02/06 03:08:16;;;;;;;2.2;1.3;;;;;;;1.54;62.68457;95544.39;;;;
2022/02/06 03:09:18;;;;;;;2.2;1.3;;;;;;;1.54;62.68457;95544.39;;;;
2022/02/06 03:10:18;;;;;;;2.2;1.3;;;;;;;1.54;62.68457;95544.39;;;;
2022/02/06 03:11:19;;;;;;;3.4;1.2;;;;;;;1.52;63.06934;95542.4;;;;
2022/02/06 03:12:25;;;;;;;3.4;1.2;;;;;;;1.52;63.06934;95542.4;;;;
2022/02/06 03:13:34;;;;;;;3.4;1.2;;;;;;;1.52;63.06934;95542.4;;;;
2022/02/06 03:14:43;;;;;;;3.4;1.2;;;;;;;1.52;63.06934;95542.4;;;;
2022/02/06 03:15:46;;;;;;;3.4;1.2;;;;;;;1.52;63.06934;95542.4;;;;
2022/02/06 03:16:50;;;;;;;3.4;1.2;;;;;;;1.52;63.06934;95542.4;;;;
2022/02/06 03:17:57;;;;;;;3.4;1.2;;;;;;;1.52;63.06934;95542.4;;;;
2022/02/06 03:19:04;;;;;;;3.4;1.2;;;;;;;1.52;63.06934;95542.4;;;;
2022/02/06 03:20:08;;;;;;;3.4;1.2;;;;;;;1.52;63.06934;95542.4;;;;
2022/02/06 03:21:16;;;;;;;3.4;1.2;;;;;;;1.52;63.06934;95542.4;;;;
2022/02/06 03:22:20;;;;;;;2.6;1.4;;;;;;;1.48;63.26367;95551.72;;;;
2022/02/06 03:23:21;;;;;;;2.6;1.4;;;;;;;1.48;63.26367;95551.72;;;;
2022/02/06 03:24:23;;;;;;;2.6;1.4;;;;;;;1.48;63.26367;95551.72;;;;
2022/02/06 03:25:25;;;;;;;2.6;1.4;;;;;;;1.48;63.26367;95551.72;;;;
2022/02/06 03:26:25;;;;;;;2.6;1.4;;;;;;;1.48;63.26367;95551.72;;;;
2022/02/06 03:27:26;;;;;;;2.6;1.4;;;;;;;1.48;63.26367;95551.72;;;;
2022/02/06 03:28:27;;;;;;;2.6;1.4;;;;;;;1.48;63.26367;95551.72;;;;
2022/02/06 03:29:27;;;;;;;2.6;1.4;;;;;;;1.48;63.26367;95551.72;;;;
2022/02/06 03:30:29;;;;;;;2.6;1.4;;;;;;;1.48;63.26367;95551.72;;;;
2022/02/06 03:31:30;;;;;;;2.6;1.4;;;;;;;1.48;63.26367;95551.72;;;;
2022/02/06 03:32:31;;;;;;;6.5;1.65;;;;;;;1.37;63.0791;95547.28;;;;
2022/02/06 03:33:31;;;;;;;6.5;1.65;;;;;;;1.37;63.0791;95547.28;;;;
2022/02/06 03:34:32;;;;;;;6.5;1.65;;;;;;;1.37;63.0791;95547.28;;;;
2022/02/06 03:35:32;;;;;;;6.5;1.65;;;;;;;1.37;63.0791;95547.28;;;;
2022/02/06 03:36:33;;;;;;;6.5;1.65;;;;;;;1.37;63.0791;95547.28;;;;
2022/02/06 03:37:34;;;;;;;6.5;1.65;;;;;;;1.37;63.0791;95547.28;;;;
2022/02/06 03:38:35;;;;;;;6.5;1.65;;;;;;;1.37;63.0791;95547.28;;;;
2022/02/06 03:39:37;;;;;;;6.5;1.65;;;;;;;1.37;63.0791;95547.28;;;;
2022/02/06 03:40:42;;;;;;;6.5;1.65;;;;;;;1.37;63.0791;95547.28;;;;
2022/02/06 03:41:53;;;;;;;6.5;1.65;;;;;;;1.37;63.0791;95547.28;;;;
2022/02/06 03:43:04;;;;;;;7.000001;1.5;;;;;;;1.28;63.35938;95541.28;;;;
2022/02/06 03:44:09;;;;;;;7.000001;1.5;;;;;;;1.28;63.35938;95541.28;;;;
2022/02/06 03:45:17;;;;;;;7.000001;1.5;;;;;;;1.28;63.35938;95541.28;;;;
2022/02/06 03:46:23;;;;;;;7.000001;1.5;;;;;;;1.28;63.35938;95541.28;;;;
2022/02/06 03:47:32;;;;;;;7.000001;1.5;;;;;;;1.28;63.35938;95541.28;;;;
2022/02/06 03:48:44;;;;;;;7.000001;1.5;;;;;;;1.28;63.35938;95541.28;;;;
2022/02/06 03:49:54;;;;;;;7.000001;1.5;;;;;;;1.28;63.35938;95541.28;;;;
2022/02/06 03:50:59;;;;;;;7.000001;1.5;;;;;;;1.28;63.35938;95541.28;;;;
2022/02/06 03:52:00;;;;;;;7.000001;1.5;;;;;;;1.28;63.35938;95541.28;;;;
2022/02/06 03:53:00;;;;;;;7.000001;1.5;;;;;;;1.28;63.35938;95541.28;;;;
2022/02/06 03:54:01;;;;;;;3.45;1.5;;;;;;;1.31;63.5957;95520.48;;;;
2022/02/06 03:55:03;;;;;;;3.45;1.5;;;;;;;1.31;63.5957;95520.48;;;;
2022/02/06 03:56:05;;;;;;;3.45;1.5;;;;;;;1.31;63.5957;95520.48;;;;
2022/02/06 03:57:05;;;;;;;3.45;1.5;;;;;;;1.31;63.5957;95520.48;;;;
2022/02/06 03:58:06;;;;;;;3.45;1.5;;;;;;;1.31;63.5957;95520.48;;;;
2022/02/06 03:59:06;;;;;;;3.45;1.5;;;;;;;1.31;63.5957;95520.48;;;;
2022/02/06 04:00:07;;;;;;;3.45;1.5;;;;;;;1.31;63.5957;95520.48;;;;
2022/02/06 04:01:09;;;;;;;3.45;1.5;;;;;;;1.31;63.5957;95520.48;;;;
2022/02/06 04:02:09;;;;;;;3.45;1.5;;;;;;;1.31;63.5957;95520.48;;;;
2022/02/06 04:03:10;;;;;;;3.45;1.5;;;;;;;1.31;63.5957;95520.48;;;;
2022/02/06 04:04:11;;;;;;;3.45;1.5;;;;;;;1.31;63.5957;95520.48;;;;
2022/02/06 04:05:12;;;;;;;3.45;1.5;;;;;;;1.41;63.59961;95516.67;;;;
2022/02/06 04:06:13;;;;;;;3.45;1.5;;;;;;;1.41;63.59961;95516.67;;;;
2022/02/06 04:07:14;;;;;;;3.45;1.5;;;;;;;1.41;63.59961;95516.67;;;;
2022/02/06 04:08:17;;;;;;;3.45;1.5;;;;;;;1.41;63.59961;95516.67;;;;
2022/02/06 04:09:22;;;;;;;3.45;1.5;;;;;;;1.41;63.59961;95516.67;;;;
2022/02/06 04:10:25;;;;;;;3.45;1.5;;;;;;;1.41;63.59961;95516.67;;;;
2022/02/06 04:11:34;;;;;;;3.45;1.5;;;;;;;1.41;63.59961;95516.67;;;;
2022/02/06 04:12:37;;;;;;;3.45;1.5;;;;;;;1.41;63.59961;95516.67;;;;
2022/02/06 04:13:52;;;;;;;3.45;1.5;;;;;;;1.41;63.59961;95516.67;;;;
2022/02/06 04:14:55;;;;;;;3.45;1.5;;;;;;;1.41;63.59961;95516.67;;;;
2022/02/06 04:15:58;;;;;;;3.5;1.3;;;;;;;1.46;63.5957;95510.32;;;;
2022/02/06 04:17:07;;;;;;;3.5;1.3;;;;;;;1.46;63.5957;95510.32;;;;
2022/02/06 04:18:12;;;;;;;3.5;1.3;;;;;;;1.46;63.5957;95510.32;;;;
2022/02/06 04:19:19;;;;;;;3.5;1.3;;;;;;;1.46;63.5957;95510.32;;;;
2022/02/06 04:20:20;;;;;;;3.5;1.3;;;;;;;1.46;63.5957;95510.32;;;;
2022/02/06 04:21:21;;;;;;;3.5;1.3;;;;;;;1.46;63.5957;95510.32;;;;
2022/02/06 04:22:21;;;;;;;3.5;1.3;;;;;;;1.46;63.5957;95510.32;;;;
2022/02/06 04:23:23;;;;;;;3.5;1.3;;;;;;;1.46;63.5957;95510.32;;;;
2022/02/06 04:24:24;;;;;;;3.5;1.3;;;;;;;1.46;63.5957;95510.32;;;;
2022/02/06 04:25:25;;;;;;;3.5;1.3;;;;;;;1.46;63.5957;95510.32;;;;
2022/02/06 04:26:26;;;;;;;2.55;1.2;;;;;;;1.58;63.60352;95488.57;;;;
2022/02/06 04:27:27;;;;;;;2.55;1.2;;;;;;;1.58;63.60352;95488.57;;;;
2022/02/06 04:28:27;;;;;;;2.55;1.2;;;;;;;1.58;63.60352;95488.57;;;;
2022/02/06 04:29:28;;;;;;;2.55;1.2;;;;;;;1.58;63.60352;95488.57;;;;
2022/02/06 04:30:29;;;;;;;2.55;1.2;;;;;;;1.58;63.60352;95488.57;;;;
2022/02/06 04:31:29;;;;;;;2.55;1.2;;;;;;;1.58;63.60352;95488.57;;;;
2022/02/06 04:32:30;;;;;;;2.55;1.2;;;;;;;1.58;63.60352;95488.57;;;;
2022/02/06 04:33:30;;;;;;;2.55;1.2;;;;;;;1.58;63.60352;95488.57;;;;
2022/02/06 04:34:31;;;;;;;2.55;1.2;;;;;;;1.58;63.60352;95488.57;;;;
2022/02/06 04:35:34;;;;;;;2.55;1.2;;;;;;;1.58;63.60352;95488.57;;;;
2022/02/06 04:36:42;;;;;;;1.25;1.1;;;;;;;1.72;64.04688;95470.92;;;;
2022/02/06 04:37:55;;;;;;;1.25;1.1;;;;;;;1.72;64.04688;95470.92;;;;
2022/02/06 04:39:07;;;;;;;1.25;1.1;;;;;;;1.72;64.04688;95470.92;;;;
2022/02/06 04:40:16;;;;;;;1.25;1.1;;;;;;;1.72;64.04688;95470.92;;;;
2022/02/06 04:41:33;;;;;;;1.25;1.1;;;;;;;1.72;64.04688;95470.92;;;;
2022/02/06 04:42:55;;;;;;;1.25;1.1;;;;;;;1.72;64.04688;95470.92;;;;
2022/02/06 04:45:29;;;;;;;1.25;1.1;;;;;;;1.72;64.04688;95470.92;;;;
2022/02/06 04:47:12;;;;;;;1.25;1.1;;;;;;;1.72;64.04688;95470.92;;;;
2022/02/06 04:48:40;;;;;;;2.3;1.35;;;;;;;1.85;64.09668;95469.84;;;;
2022/02/06 04:55:17;;;;;;;2.3;1.35;;;;;;;1.85;64.09668;95469.84;;;;
2022/02/06 05:11:07;;;;;;;2.3;1.35;;;;;;;1.85;64.09668;95469.84;;;;
2022/02/06 05:17:36;;;;;;;2;1.1;;;;;;;2.02;64.4375;95436.31;;;;
2022/02/06 05:19:06;;;;;;;2;1.1;;;;;;;2.02;64.4375;95436.31;;;;
2022/02/06 05:21:04;;;;;;;2.65;1.2;;;;;;;2.12;64.44141;95424.51;;;;
2022/02/06 05:22:28;;;;;;;2.65;1.2;;;;;;;2.12;64.44141;95424.51;;;;
2022/02/06 05:28:47;;;;;;;2.65;1.2;;;;;;;2.12;64.44141;95424.51;;;;
2022/02/06 05:29:57;;;;;;;2.7;1.3;;;;;;;2.31;64.58691;95427.97;;;;
2022/02/06 05:31:04;;;;;;;2.7;1.3;;;;;;;2.31;64.58691;95427.97;;;;
2022/02/06 05:32:16;;;;;;;2.7;1.3;;;;;;;2.31;64.58691;95427.97;;;;
2022/02/06 05:33:17;;;;;;;2.7;1.3;;;;;;;2.31;64.58691;95427.97;;;;
2022/02/06 05:34:17;;;;;;;2.7;1.3;;;;;;;2.31;64.58691;95427.97;;;;
2022/02/06 05:35:18;;;;;;;2.7;1.3;;;;;;;2.31;64.58691;95427.97;;;;
2022/02/06 05:36:19;;;;;;;2.7;1.3;;;;;;;2.31;64.58691;95427.97;;;;
2022/02/06 05:37:19;;;;;;;2.7;1.3;;;;;;;2.31;64.58691;95427.97;;;;
2022/02/06 05:38:20;;;;;;;2.7;1.3;;;;;;;2.31;64.58691;95427.97;;;;
2022/02/06 05:39:20;;;;;;;2.7;1.3;;;;;;;2.31;64.58691;95427.97;;;;
2022/02/06 05:40:21;;;;;;;4.900001;1.4;;;;;;;2.53;64.57715;95390.69;;;;
2022/02/06 05:41:22;;;;;;;4.900001;1.4;;;;;;;2.53;64.57715;95390.69;;;;
2022/02/06 05:42:22;;;;;;;4.900001;1.4;;;;;;;2.53;64.57715;95390.69;;;;
2022/02/06 05:43:23;;;;;;;4.900001;1.4;;;;;;;2.53;64.57715;95390.69;;;;
2022/02/06 05:44:24;;;;;;;4.900001;1.4;;;;;;;2.53;64.57715;95390.69;;;;
2022/02/06 05:45:24;;;;;;;4.900001;1.4;;;;;;;2.53;64.57715;95390.69;;;;
2022/02/06 05:46:25;;;;;;;4.900001;1.4;;;;;;;2.53;64.57715;95390.69;;;;
2022/02/06 05:47:26;;;;;;;4.900001;1.4;;;;;;;2.53;64.57715;95390.69;;;;
2022/02/06 05:48:27;;;;;;;4.900001;1.4;;;;;;;2.53;64.57715;95390.69;;;;
2022/02/06 05:49:28;;;;;;;4.900001;1.4;;;;;;;2.53;64.57715;95390.69;;;;
2022/02/06 05:50:28;;;;;;;4.900001;1.4;;;;;;;2.53;64.57715;95390.69;;;;
2022/02/06 05:51:29;;;;;;;2.05;1.2;;;;;;;2.7;64.60352;95389.08;;;;
2022/02/06 05:52:29;;;;;;;2.05;1.2;;;;;;;2.7;64.60352;95389.08;;;;
2022/02/06 05:53:31;;;;;;;2.05;1.2;;;;;;;2.7;64.60352;95389.08;;;;
2022/02/06 05:54:32;;;;;;;2.05;1.2;;;;;;;2.7;64.60352;95389.08;;;;
2022/02/06 05:55:32;;;;;;;2.05;1.2;;;;;;;2.7;64.60352;95389.08;;;;
2022/02/06 05:56:33;;;;;;;2.05;1.2;;;;;;;2.7;64.60352;95389.08;;;;
2022/02/06 05:57:34;;;;;;;2.05;1.2;;;;;;;2.7;64.60352;95389.08;;;;
2022/02/06 05:58:35;;;;;;;2.05;1.2;;;;;;;2.7;64.60352;95389.08;;;;
2022/02/06 05:59:36;;;;;;;2.05;1.2;;;;;;;2.7;64.60352;95389.08;;;;
2022/02/06 06:00:37;;;;;;;2.05;1.2;;;;;;;2.7;64.60352;95389.08;;;;
2022/02/06 06:01:37;;;;;;;3.5;1.2;;;;;;;2.8;64.51367;95385.53;;;;
2022/02/06 06:02:38;;;;;;;3.5;1.2;;;;;;;2.8;64.51367;95385.53;;;;
2022/02/06 06:03:39;;;;;;;3.5;1.2;;;;;;;2.8;64.51367;95385.53;;;;
2022/02/06 06:04:39;;;;;;;3.5;1.2;;;;;;;2.8;64.51367;95385.53;;;;
2022/02/06 06:05:40;;;;;;;3.5;1.2;;;;;;;2.8;64.51367;95385.53;;;;
2022/02/06 06:06:42;;;;;;;3.5;1.2;;;;;;;2.8;64.51367;95385.53;;;;
2022/02/06 06:07:42;;;;;;;3.5;1.2;;;;;;;2.8;64.51367;95385.53;;;;
2022/02/06 06:08:43;;;;;;;3.5;1.2;;;;;;;2.8;64.51367;95385.53;;;;
2022/02/06 06:09:44;;;;;;;3.5;1.2;;;;;;;2.8;64.51367;95385.53;;;;
2022/02/06 06:10:44;;;;;;;3.5;1.2;;;;;;;2.8;64.51367;95385.53;;;;
2022/02/06 06:11:45;;;;;;;3.5;1.2;;;;;;;2.8;64.51367;95385.53;;;;
2022/02/06 06:12:45;;;;;;;2.95;1.05;;;;;;;2.9;64.33887;95386.97;;;;
2022/02/06 06:13:46;;;;;;;2.95;1.05;;;;;;;2.9;64.33887;95386.97;;;;
2022/02/06 06:14:47;;;;;;;2.95;1.05;;;;;;;2.9;64.33887;95386.97;;;;
2022/02/06 06:15:48;;;;;;;2.95;1.05;;;;;;;2.9;64.33887;95386.97;;;;
2022/02/06 06:16:49;;;;;;;2.95;1.05;;;;;;;2.9;64.33887;95386.97;;;;
2022/02/06 06:17:49;;;;;;;2.95;1.05;;;;;;;2.9;64.33887;95386.97;;;;
2022/02/06 06:18:50;;;;;;;2.95;1.05;;;;;;;2.9;64.33887;95386.97;;;;
2022/02/06 06:19:50;;;;;;;2.95;1.05;;;;;;;2.9;64.33887;95386.97;;;;
2022/02/06 06:20:52;;;;;;;2.95;1.05;;;;;;;2.9;64.33887;95386.97;;;;
2022/02/06 06:21:55;;;;;;;2.95;1.05;;;;;;;2.9;64.33887;95386.97;;;;
2022/02/06 06:22:56;;;;;;;2.95;1.05;;;;;;;2.9;64.33887;95386.97;;;;
2022/02/06 06:23:59;;;;;;;2.2;1.3;;;;;;;2.97;64.12598;95395.06;;;;
2022/02/06 06:25:02;;;;;;;2.2;1.3;;;;;;;2.97;64.12598;95395.06;;;;
2022/02/06 06:26:04;;;;;;;2.2;1.3;;;;;;;2.97;64.12598;95395.06;;;;
2022/02/06 06:27:04;;;;;;;2.2;1.3;;;;;;;2.97;64.12598;95395.06;;;;
2022/02/06 06:28:05;;;;;;;2.2;1.3;;;;;;;2.97;64.12598;95395.06;;;;
2022/02/06 06:29:06;;;;;;;2.2;1.3;;;;;;;2.97;64.12598;95395.06;;;;
2022/02/06 06:30:06;;;;;;;2.2;1.3;;;;;;;2.97;64.12598;95395.06;;;;
2022/02/06 06:31:08;;;;;;;2.2;1.3;;;;;;;2.97;64.12598;95395.06;;;;
2022/02/06 06:32:09;;;;;;;2.2;1.3;;;;;;;2.97;64.12598;95395.06;;;;
2022/02/06 06:33:09;;;;;;;2.2;1.3;;;;;;;2.97;64.12598;95395.06;;;;
2022/02/06 06:34:10;;;;;;;1.3;1.05;;;;;;;3.04;63.90527;95389.29;;;;
2022/02/06 06:35:11;;;;;;;1.3;1.05;;;;;;;3.04;63.90527;95389.29;;;;
2022/02/06 06:36:11;;;;;;;1.3;1.05;;;;;;;3.04;63.90527;95389.29;;;;
2022/02/06 06:37:13;;;;;;;1.3;1.05;;;;;;;3.04;63.90527;95389.29;;;;
2022/02/06 06:38:14;;;;;;;1.3;1.05;;;;;;;3.04;63.90527;95389.29;;;;
2022/02/06 06:39:21;;;;;;;1.3;1.05;;;;;;;3.04;63.90527;95389.29;;;;
2022/02/06 06:40:21;;;;;;;1.3;1.05;;;;;;;3.04;63.90527;95389.29;;;;
2022/02/06 06:41:22;;;;;;;1.3;1.05;;;;;;;3.04;63.90527;95389.29;;;;
2022/02/06 06:42:22;;;;;;;1.3;1.05;;;;;;;3.04;63.90527;95389.29;;;;
2022/02/06 06:43:23;;;;;;;1.3;1.05;;;;;;;3.04;63.90527;95389.29;;;;
2022/02/06 06:44:23;;;;;;;4.550001;1.1;;;;;;;3.09;63.71387;95394.39;;;;
2022/02/06 06:45:24;;;;;;;4.550001;1.1;;;;;;;3.09;63.71387;95394.39;;;;
2022/02/06 06:46:24;;;;;;;4.550001;1.1;;;;;;;3.09;63.71387;95394.39;;;;
2022/02/06 06:47:25;;;;;;;4.550001;1.1;;;;;;;3.09;63.71387;95394.39;;;;
2022/02/06 06:48:26;;;;;;;4.550001;1.1;;;;;;;3.09;63.71387;95394.39;;;;
2022/02/06 06:49:26;;;;;;;4.550001;1.1;;;;;;;3.09;63.71387;95394.39;;;;
2022/02/06 06:50:32;;;;;;;4.550001;1.1;;;;;;;3.09;63.71387;95394.39;;;;
2022/02/06 06:51:33;;;;;;;4.550001;1.1;;;;;;;3.09;63.71387;95394.39;;;;
2022/02/06 06:52:33;;;;;;;4.550001;1.1;;;;;;;3.09;63.71387;95394.39;;;;
2022/02/06 06:53:37;;;;;;;4.550001;1.1;;;;;;;3.09;63.71387;95394.39;;;;
2022/02/06 06:54:41;;;;;;;4.550001;1.1;;;;;;;3.09;63.71387;95394.39;;;;
2022/02/06 06:55:44;;;;;;;4;1.35;;;;;;;3.27;63.46484;95378.88;;;;
2022/02/06 06:56:51;;;;;;;4;1.35;;;;;;;3.27;63.46484;95378.88;;;;
2022/02/06 06:57:58;;;;;;;4;1.35;;;;;;;3.27;63.46484;95378.88;;;;
2022/02/06 06:58:58;;;;;;;4;1.35;;;;;;;3.27;63.46484;95378.88;;;;
2022/02/06 07:01:20;;;;;;;4;1.35;;;;;;;3.27;63.46484;95378.88;;;;
2022/02/06 07:02:28;;;;;;;4;1.35;;;;;;;3.27;63.46484;95378.88;;;;
2022/02/06 07:03:29;;;;;;;4;1.35;;;;;;;3.27;63.46484;95378.88;;;;
2022/02/06 07:04:31;;;;;;;4;1.35;;;;;;;3.27;63.46484;95378.88;;;;
2022/02/06 07:05:31;;;;;;;4;1.35;;;;;;;3.27;63.46484;95378.88;;;;
2022/02/06 07:06:32;;;;;;;1.35;1;;;;;;;3.41;63.08398;95385.1;;;;
2022/02/06 07:07:33;;;;;;;1.35;1;;;;;;;3.41;63.08398;95385.1;;;;
2022/02/06 07:08:34;;;;;;;1.35;1;;;;;;;3.41;63.08398;95385.1;;;;
2022/02/06 07:09:34;;;;;;;1.35;1;;;;;;;3.41;63.08398;95385.1;;;;
2022/02/06 07:10:35;;;;;;;1.35;1;;;;;;;3.41;63.08398;95385.1;;;;
2022/02/06 07:11:36;;;;;;;1.35;1;;;;;;;3.41;63.08398;95385.1;;;;
2022/02/06 07:12:36;;;;;;;1.35;1;;;;;;;3.41;63.08398;95385.1;;;;
2022/02/06 07:13:37;;;;;;;1.35;1;;;;;;;3.41;63.08398;95385.1;;;;
2022/02/06 07:14:38;;;;;;;1.35;1;;;;;;;3.41;63.08398;95385.1;;;;
2022/02/06 07:15:39;;;;;;;1.35;1;;;;;;;3.41;63.08398;95385.1;;;;
2022/02/06 07:16:39;;;;;;;2.25;1.2;;;;;;;3.53;62.75391;95374.22;;;;
2022/02/06 07:17:40;;;;;;;2.25;1.2;;;;;;;3.53;62.75391;95374.22;;;;
2022/02/06 07:18:40;;;;;;;2.25;1.2;;;;;;;3.53;62.75391;95374.22;;;;
2022/02/06 07:19:41;;;;;;;2.25;1.2;;;;;;;3.53;62.75391;95374.22;;;;
2022/02/06 07:20:43;;;;;;;2.25;1.2;;;;;;;3.53;62.75391;95374.22;;;;
2022/02/06 07:21:43;;;;;;;2.25;1.2;;;;;;;3.53;62.75391;95374.22;;;;
2022/02/06 07:22:45;;;;;;;2.25;1.2;;;;;;;3.53;62.75391;95374.22;;;;
2022/02/06 07:23:46;;;;;;;2.25;1.2;;;;;;;3.53;62.75391;95374.22;;;;
2022/02/06 07:24:47;;;;;;;2.25;1.2;;;;;;;3.53;62.75391;95374.22;;;;
2022/02/06 07:25:51;;;;;;;2.25;1.2;;;;;;;3.53;62.75391;95374.22;;;;
2022/02/06 07:26:54;;;;;;;2.25;1.2;;;;;;;3.53;62.75391;95374.22;;;;
2022/02/06 07:27:55;;;;;;;1.9;1;;;;;;;3.7;62.36621;95361.86;;;;
2022/02/06 07:28:59;;;;;;;1.9;1;;;;;;;3.7;62.36621;95361.86;;;;
2022/02/06 07:30:05;;;;;;;1.9;1;;;;;;;3.7;62.36621;95361.86;;;;
2022/02/06 07:31:07;;;;;;;1.9;1;;;;;;;3.7;62.36621;95361.86;;;;
2022/02/06 07:32:07;;;;;;;1.9;1;;;;;;;3.7;62.36621;95361.86;;;;
2022/02/06 07:33:09;;;;;;;1.9;1;;;;;;;3.7;62.36621;95361.86;;;;
2022/02/06 07:34:09;;;;;;;1.9;1;;;;;;;3.7;62.36621;95361.86;;;;
2022/02/06 07:35:09;;;;;;;1.9;1;;;;;;;3.7;62.36621;95361.86;;;;